KMCE/MCE METAR and TAF weather

Enter ICAO airport designator
Station Type Date Time Source
KMCE METAR 2020/01/27 10:53 UTC NOAA

KMCE 271053Z AUTO 31004KT 10SM CLR 06/05 A3032 RMK AO2 SLP268 T00610050


Station Type Date Time Source
KMCE Decoded METAR 2020/01/27 10:53 UTC NOAA

MERCED MUNICIPAL AIRPORT, CA, United States (KMCE) 37-17N 120-30W 47M
Jan 27, 2020 - 05:53 AM EST / 2020.01.27 1053 UTC
Wind: from the NW (310 degrees) at 5 MPH (4 KT):0
Visibility: 10 mile(s):0
Sky conditions: clear
Temperature: 43.0 F (6.1 C)
Dew Point: 41.0 F (5.0 C)
Relative Humidity: 92%
Pressure (altimeter): 30.32 in. Hg (1026 hPa)
ob: KMCE 271053Z AUTO 31004KT 10SM CLR 06/05 A3032 RMK AO2 SLP268 T00610050
cycle: 11

Station Type Date Time Source
KMCE TAF 2020/01/27 06:22 UTC NOAA

TAF KMCE 270520Z 2706/2806 34006KT P6SM SKC
FM270900 34006KT P6SM FEW250
FM271200 34006KT P6SM SCT250
FM271500 34004KT P6SM BKN250
FM280300 32004KT P6SM SCT250

Example: see airport list